Time,TemperatureF,DewpointF,PressureIn,WindDirection,WindDirectionDegrees,WindSpeedMPH,WindSpeedGustMPH,Humidity,HourlyPrecipIn,Conditions,Clouds,dailyrainin,SoftwareType,DateUTC
2013-11-11 00:00:00,36.1,32.6,30.29,NNE,12,0.0,1.0,87,0.00,,OVC055,0.00,VWS V14.01,2013-11-11 05:00:00,
2013-11-11 00:01:00,36.1,32.6,30.29,NNE,12,0.0,0.0,87,0.00,,OVC055,0.00,VWS V14.01,2013-11-11 05:01:00,
2013-11-11 00:02:00,36.1,32.3,30.29,NNE,12,0.0,0.0,86,0.00,,OVC055,0.00,VWS V14.01,2013-11-11 05:02:00,
2013-11-11 00:07:00,35.9,32.4,30.29,NNE,12,2.0,2.0,87,0.00,,OVC055,0.00,VWS V14.01,2013-11-11 05:07:00,
2013-11-11 00:12:00,35.7,32.2,30.29,NNE,12,0.0,2.0,87,0.00,,OVC055,0.00,VWS V14.01,2013-11-11 05:12:00,
2013-11-11 00:17:00,35.6,32.4,30.28,NNE,12,0.0,2.0,88,0.00,,OVC055,0.00,VWS V14.01,2013-11-11 05:17:00,
2013-11-11 00:22:00,35.5,32.3,30.29,NNE,12,0.0,2.0,88,0.00,,OVC055,0.00,VWS V14.01,2013-11-11 05:22:00,
2013-11-11 00:27:00,35.4,32.2,30.29,NNE,12,0.0,2.0,88,0.00,,OVC055,0.00,VWS V14.01,2013-11-11 05:27:00,
2013-11-11 00:30:00,35.4,32.2,30.29,NNE,12,0.0,2.0,88,0.00,,OVC055,0.00,VWS V14.01,2013-11-11 05:30:00,
2013-11-11 00:32:00,35.3,32.4,30.29,NNE,12,0.0,0.0,89,0.00,,OVC055,0.00,VWS V14.01,2013-11-11 05:32:00,
2013-11-11 00:37:00,35.3,32.1,30.29,NNE,12,0.0,1.0,88,0.00,,OVC055,0.00,VWS V14.01,2013-11-11 05:37:00,
2013-11-11 00:42:00,35.2,32.0,30.29,NNE,12,0.0,2.0,88,0.00,,OVC055,0.00,VWS V14.01,2013-11-11 05:42:00,
2013-11-11 00:47:00,35.1,32.2,30.29,NNE,12,0.0,2.0,89,0.00,,OVC055,0.00,VWS V14.01,2013-11-11 05:47:00,
2013-11-11 00:52:00,34.9,32.0,30.29,NNE,12,0.0,2.0,89,0.00,,OVC055,0.00,VWS V14.01,2013-11-11 05:52:00,
2013-11-11 00:57:00,34.8,32.2,30.30,NNE,12,0.0,2.0,90,0.00,,OVC055,0.00,VWS V14.01,2013-11-11 05:57:00,
2013-11-11 01:00:00,34.8,32.2,30.30,NNE,12,0.0,2.0,90,0.00,,OVC055,0.00,VWS V14.01,2013-11-11 06:00:00,
2013-11-11 01:02:00,34.7,32.1,30.30,NNE,12,0.0,0.0,90,0.00,,OVC055,0.00,VWS V14.01,2013-11-11 06:02:00,
2013-11-11 01:07:00,34.6,32.0,30.30,NNE,12,0.0,1.0,90,0.00,,OVC055,0.00,VWS V14.01,2013-11-11 06:07:00,
2013-11-11 01:12:00,34.4,31.5,30.30,NNE,12,0.0,1.0,89,0.00,,OVC055,0.00,VWS V14.01,2013-11-11 06:12:00,
2013-11-11 01:17:00,34.3,31.7,30.30,NNE,12,0.0,1.0,90,0.00,,OVC055,0.00,VWS V14.01,2013-11-11 06:17:00,
2013-11-11 01:22:00,34.2,31.9,30.30,NNE,12,0.0,1.0,91,0.00,,OVC055,0.00,VWS V14.01,2013-11-11 06:22:00,
2013-11-11 01:27:00,34.1,31.8,30.30,NNE,12,0.0,1.0,91,0.00,,OVC055,0.00,VWS V14.01,2013-11-11 06:27:00,
2013-11-11 01:30:00,34.1,31.8,30.30,NNE,12,0.0,1.0,91,0.00,,OVC055,0.00,VWS V14.01,2013-11-11 06:30:00,
2013-11-11 01:32:00,34.0,31.6,30.30,NNE,12,0.0,0.0,91,0.00,,OVC055,0.00,VWS V14.01,2013-11-11 06:32:00,
2013-11-11 01:37:00,33.9,31.6,30.30,NNE,12,0.0,0.0,91,0.00,,OVC055,0.00,VWS V14.01,2013-11-11 06:37:00,
2013-11-11 01:42:00,33.5,31.2,30.30,NNE,12,0.0,0.0,91,0.00,,OVC055,0.00,VWS V14.01,2013-11-11 06:42:00,
2013-11-11 01:47:00,33.3,31.0,30.30,NNE,12,0.0,0.0,91,0.00,,OVC055,0.00,VWS V14.01,2013-11-11 06:47:00,
2013-11-11 01:51:00,33.2,31.1,30.30,NNE,12,0.0,0.0,92,0.00,,OVC055,0.00,VWS V14.01,2013-11-11 06:51:00,
2013-11-11 01:56:00,33.0,31.2,30.30,NNE,12,0.0,0.0,93,0.00,,OVC055,0.00,VWS V14.01,2013-11-11 06:56:00,
2013-11-11 02:00:00,33.0,31.2,30.30,NNE,12,0.0,0.0,93,0.00,,OVC055,0.00,VWS V14.01,2013-11-11 07:00:00,
2013-11-11 02:01:00,32.9,31.1,30.30,NNE,12,0.0,0.0,93,0.00,,OVC055,0.00,VWS V14.01,2013-11-11 07:01:00,
2013-11-11 02:06:00,32.8,31.0,30.30,NNE,12,0.0,0.0,93,0.00,,OVC055,0.00,VWS V14.01,2013-11-11 07:06:00,
2013-11-11 02:11:00,32.6,30.8,30.30,NNE,12,0.0,0.0,93,0.00,,OVC055,0.00,VWS V14.01,2013-11-11 07:11:00,
2013-11-11 02:16:00,32.5,30.7,30.30,NNE,12,0.0,0.0,93,0.00,,OVC055,0.00,VWS V14.01,2013-11-11 07:16:00,
2013-11-11 02:21:00,32.4,30.6,30.30,NNE,12,0.0,0.0,93,0.00,,OVC055,0.00,VWS V14.01,2013-11-11 07:21:00,
2013-11-11 02:26:00,32.4,30.9,30.30,NNE,12,0.0,0.0,94,0.00,,OVC055,0.00,VWS V14.01,2013-11-11 07:26:00,
2013-11-11 02:30:00,32.3,30.8,30.30,NNE,12,0.0,0.0,94,0.00,,OVC055,0.00,VWS V14.01,2013-11-11 07:30:00,
2013-11-11 02:31:00,32.3,30.8,30.30,NNE,12,0.0,0.0,94,0.00,,OVC055,0.00,VWS V14.01,2013-11-11 07:31:00,
2013-11-11 02:36:00,32.2,30.7,30.30,NNE,12,0.0,0.0,94,0.00,,OVC055,0.00,VWS V14.01,2013-11-11 07:36:00,
2013-11-11 02:41:00,32.1,30.6,30.30,NNE,12,0.0,0.0,94,0.00,,OVC055,0.00,VWS V14.01,2013-11-11 07:41:00,
2013-11-11 02:46:00,31.9,30.4,30.30,NNE,12,0.0,0.0,94,0.00,,OVC055,0.00,VWS V14.01,2013-11-11 07:46:00,
2013-11-11 02:51:00,31.8,30.3,30.31,NNE,12,0.0,0.0,94,0.00,,OVC055,0.00,VWS V14.01,2013-11-11 07:51:00,
2013-11-11 02:56:00,31.7,30.2,30.30,NNE,12,0.0,0.0,94,0.00,,OVC055,0.00,VWS V14.01,2013-11-11 07:56:00,
2013-11-11 03:00:00,31.7,30.2,30.30,NNE,12,0.0,0.0,94,0.00,,OVC055,0.00,VWS V14.01,2013-11-11 08:00:00,
2013-11-11 03:01:00,31.7,30.4,30.31,NNE,12,0.0,0.0,95,0.00,,OVC055,0.00,VWS V14.01,2013-11-11 08:01:00,
2013-11-11 03:06:00,31.8,30.5,30.31,NNE,12,0.0,0.0,95,0.00,,OVC055,0.00,VWS V14.01,2013-11-11 08:06:00,
2013-11-11 03:11:00,31.7,30.4,30.31,NNE,12,0.0,0.0,95,0.00,,OVC055,0.00,VWS V14.01,2013-11-11 08:11:00,
2013-11-11 03:16:00,31.6,30.3,30.31,NNE,12,0.0,0.0,95,0.00,,OVC055,0.00,VWS V14.01,2013-11-11 08:16:00,
2013-11-11 03:21:00,31.6,30.3,30.31,NNE,12,0.0,0.0,95,0.00,,OVC055,0.00,VWS V14.01,2013-11-11 08:21:00,
2013-11-11 03:26:00,31.5,30.2,30.31,NNE,12,0.0,0.0,95,0.00,,OVC055,0.00,VWS V14.01,2013-11-11 08:26:00,
2013-11-11 03:30:00,31.5,30.2,30.31,NNE,12,0.0,0.0,95,0.00,,OVC055,0.00,VWS V14.01,2013-11-11 08:30:00,
2013-11-11 03:31:00,31.1,29.8,30.31,NNE,12,0.0,0.0,95,0.00,,OVC055,0.00,VWS V14.01,2013-11-11 08:31:00,
2013-11-11 03:36:00,31.0,29.7,30.31,NNE,12,0.0,0.0,95,0.00,,OVC055,0.00,VWS V14.01,2013-11-11 08:36:00,
2013-11-11 03:41:00,30.9,29.6,30.31,NNE,12,0.0,0.0,95,0.00,,OVC055,0.00,VWS V14.01,2013-11-11 08:41:00,
2013-11-11 03:46:00,30.8,29.5,30.31,NNE,12,0.0,0.0,95,0.00,,OVC055,0.00,VWS V14.01,2013-11-11 08:46:00,
2013-11-11 03:51:00,30.7,29.7,30.31,NNE,12,0.0,0.0,96,0.00,,OVC055,0.00,VWS V14.01,2013-11-11 08:51:00,
2013-11-11 03:56:00,30.6,29.6,30.31,NNE,12,0.0,0.0,96,0.00,,OVC055,0.00,VWS V14.01,2013-11-11 08:56:00,
2013-11-11 04:00:00,30.6,29.6,30.31,NNE,12,0.0,0.0,96,0.00,,OVC055,0.00,VWS V14.01,2013-11-11 09:00:00,
2013-11-11 04:01:00,30.6,29.6,30.31,NNE,12,0.0,0.0,96,0.00,,OVC055,0.00,VWS V14.01,2013-11-11 09:01:00,
2013-11-11 04:06:00,30.5,29.5,30.31,NNE,12,0.0,0.0,96,0.00,,OVC055,0.00,VWS V14.01,2013-11-11 09:06:00,
2013-11-11 04:11:00,30.3,29.3,30.31,NNE,12,0.0,0.0,96,0.00,,OVC055,0.00,VWS V14.01,2013-11-11 09:11:00,
2013-11-11 04:16:00,30.3,29.3,30.32,NNE,12,0.0,0.0,96,0.00,,OVC055,0.00,VWS V14.01,2013-11-11 09:16:00,
2013-11-11 04:21:00,30.3,29.3,30.31,NNE,12,0.0,0.0,96,0.00,,OVC055,0.00,VWS V14.01,2013-11-11 09:21:00,
2013-11-11 04:26:00,30.3,29.3,30.31,NNE,12,0.0,0.0,96,0.00,,OVC055,0.00,VWS V14.01,2013-11-11 09:26:00,
2013-11-11 04:30:00,30.3,29.3,30.31,NNE,12,0.0,0.0,96,0.00,,OVC055,0.00,VWS V14.01,2013-11-11 09:30:00,
2013-11-11 04:31:00,30.3,29.3,30.32,NNE,12,0.0,0.0,96,0.00,,OVC055,0.00,VWS V14.01,2013-11-11 09:31:00,
2013-11-11 04:36:00,30.2,29.2,30.31,NNE,12,0.0,0.0,96,0.00,,OVC055,0.00,VWS V14.01,2013-11-11 09:36:00,
2013-11-11 04:41:00,30.1,29.1,30.32,NNE,12,0.0,0.0,96,0.00,,OVC055,0.00,VWS V14.01,2013-11-11 09:41:00,
2013-11-11 04:46:00,30.1,29.1,30.32,NNE,12,0.0,0.0,96,0.00,,OVC055,0.00,VWS V14.01,2013-11-11 09:46:00,
2013-11-11 04:51:00,30.0,29.0,30.32,NNE,12,0.0,0.0,96,0.00,,OVC055,0.00,VWS V14.01,2013-11-11 09:51:00,
2013-11-11 04:56:00,29.9,28.9,30.32,NNE,12,0.0,0.0,96,0.00,,OVC055,0.00,VWS V14.01,2013-11-11 09:56:00,
2013-11-11 05:00:00,29.9,28.9,30.32,NNE,12,0.0,0.0,96,0.00,,OVC055,0.00,VWS V14.01,2013-11-11 10:00:00,
2013-11-11 05:01:00,29.8,28.8,30.32,NNE,12,0.0,0.0,96,0.00,,OVC055,0.00,VWS V14.01,2013-11-11 10:01:00,
2013-11-11 05:06:00,29.7,28.7,30.32,NNE,12,0.0,0.0,96,0.00,,OVC055,0.00,VWS V14.01,2013-11-11 10:06:00,
2013-11-11 05:11:00,29.6,28.6,30.32,NNE,12,0.0,0.0,96,0.00,,OVC055,0.00,VWS V14.01,2013-11-11 10:11:00,
2013-11-11 05:16:00,29.6,28.6,30.33,NNE,12,0.0,0.0,96,0.00,,OVC055,0.00,VWS V14.01,2013-11-11 10:16:00,
2013-11-11 05:21:00,29.6,28.9,30.33,NNE,12,0.0,0.0,97,0.00,,OVC055,0.00,VWS V14.01,2013-11-11 10:21:00,
2013-11-11 05:26:00,29.6,28.9,30.33,NNE,12,0.0,0.0,97,0.00,,OVC055,0.00,VWS V14.01,2013-11-11 10:26:00,
2013-11-11 05:30:00,29.5,28.8,30.33,NNE,12,0.0,0.0,97,0.00,,OVC055,0.00,VWS V14.01,2013-11-11 10:30:00,
2013-11-11 05:31:00,29.5,28.8,30.33,NNE,12,0.0,0.0,97,0.00,,OVC055,0.00,VWS V14.01,2013-11-11 10:31:00,
2013-11-11 05:36:00,29.4,28.7,30.33,NNE,12,0.0,0.0,97,0.00,,OVC055,0.00,VWS V14.01,2013-11-11 10:36:00,
2013-11-11 05:41:00,29.4,28.7,30.34,NNE,12,0.0,0.0,97,0.00,,OVC055,0.00,VWS V14.01,2013-11-11 10:41:00,
2013-11-11 05:46:00,29.4,28.7,30.34,NNE,12,0.0,0.0,97,0.00,,OVC055,0.00,VWS V14.01,2013-11-11 10:46:00,
2013-11-11 05:51:00,29.3,28.6,30.34,NNE,12,0.0,0.0,97,0.00,,OVC055,0.00,VWS V14.01,2013-11-11 10:51:00,
2013-11-11 05:56:00,29.3,28.6,30.34,NNE,12,0.0,0.0,97,0.00,,OVC055,0.00,VWS V14.01,2013-11-11 10:56:00,
2013-11-11 06:00:00,29.2,28.5,30.34,NNE,12,0.0,0.0,97,0.00,,OVC055,0.00,VWS V14.01,2013-11-11 11:00:00,
2013-11-11 06:01:00,29.1,28.4,30.34,NNE,12,0.0,0.0,97,0.00,,OVC055,0.00,VWS V14.01,2013-11-11 11:01:00,
2013-11-11 06:06:00,29.0,28.3,30.34,NNE,12,0.0,0.0,97,0.00,,OVC055,0.00,VWS V14.01,2013-11-11 11:06:00,
2013-11-11 06:11:00,29.0,28.3,30.34,NNE,12,0.0,0.0,97,0.00,,OVC055,0.00,VWS V14.01,2013-11-11 11:11:00,
2013-11-11 06:16:00,29.0,28.3,30.34,NNE,12,0.0,0.0,97,0.00,,OVC055,0.00,VWS V14.01,2013-11-11 11:16:00,
2013-11-11 06:21:00,28.9,28.2,30.35,NNE,12,0.0,0.0,97,0.00,,OVC055,0.00,VWS V14.01,2013-11-11 11:21:00,
2013-11-11 06:26:00,28.9,28.2,30.35,NNE,12,0.0,0.0,97,0.00,,OVC055,0.00,VWS V14.01,2013-11-11 11:26:00,
2013-11-11 06:30:00,28.9,28.2,30.35,NNE,12,0.0,0.0,97,0.00,,OVC055,0.00,VWS V14.01,2013-11-11 11:30:00,
2013-11-11 06:31:00,28.9,28.2,30.35,NNE,12,0.0,0.0,97,0.00,,OVC055,0.00,VWS V14.01,2013-11-11 11:31:00,
2013-11-11 06:36:00,28.8,28.1,30.35,NNE,12,0.0,0.0,97,0.00,,OVC055,0.00,VWS V14.01,2013-11-11 11:36:00,
2013-11-11 06:41:00,28.7,28.0,30.35,NNE,12,0.0,0.0,97,0.00,,OVC055,0.00,VWS V14.01,2013-11-11 11:41:00,
2013-11-11 06:46:00,28.7,28.0,30.35,NNE,12,0.0,0.0,97,0.00,,OVC055,0.00,VWS V14.01,2013-11-11 11:46:00,
2013-11-11 06:51:00,28.7,28.0,30.36,NNE,12,0.0,0.0,97,0.00,,OVC055,0.00,VWS V14.01,2013-11-11 11:51:00,
2013-11-11 06:56:00,28.7,28.0,30.36,NNE,12,0.0,0.0,97,0.00,,OVC055,0.00,VWS V14.01,2013-11-11 11:56:00,
2013-11-11 07:00:00,28.7,28.0,30.36,NNE,12,0.0,0.0,97,0.00,,OVC055,0.00,VWS V14.01,2013-11-11 12:00:00,
2013-11-11 07:01:00,28.6,27.9,30.36,NNE,12,0.0,0.0,97,0.00,,OVC055,0.00,VWS V14.01,2013-11-11 12:01:00,
2013-11-11 07:06:00,28.5,27.8,30.36,NNE,12,0.0,0.0,97,0.00,,OVC055,0.00,VWS V14.01,2013-11-11 12:06:00,
2013-11-11 07:11:00,28.5,27.8,30.37,NNE,12,0.0,0.0,97,0.00,,OVC055,0.00,VWS V14.01,2013-11-11 12:11:00,
2013-11-11 07:16:00,28.4,27.7,30.37,NNE,12,0.0,0.0,97,0.00,,OVC055,0.00,VWS V14.01,2013-11-11 12:16:00,
2013-11-11 07:21:00,28.3,27.6,30.37,NNE,12,0.0,0.0,97,0.00,,OVC055,0.00,VWS V14.01,2013-11-11 12:21:00,
2013-11-11 07:26:00,28.3,27.6,30.37,NNE,12,0.0,0.0,97,0.00,,OVC055,0.00,VWS V14.01,2013-11-11 12:26:00,
2013-11-11 07:30:00,28.3,27.6,30.37,NNE,12,0.0,0.0,97,0.00,,OVC055,0.00,VWS V14.01,2013-11-11 12:30:00,
2013-11-11 07:31:00,28.3,27.6,30.37,NNE,12,0.0,0.0,97,0.00,,OVC055,0.00,VWS V14.01,2013-11-11 12:31:00,
2013-11-11 07:36:00,28.4,27.7,30.36,NNE,12,0.0,0.0,97,0.00,,OVC055,0.00,VWS V14.01,2013-11-11 12:36:00,
2013-11-11 07:41:00,28.4,27.7,30.37,NNE,12,0.0,0.0,97,0.00,,OVC055,0.00,VWS V14.01,2013-11-11 12:41:00,
2013-11-11 07:46:00,28.5,28.0,30.37,NNE,12,0.0,0.0,98,0.00,,OVC055,0.00,VWS V14.01,2013-11-11 12:46:00,
2013-11-11 07:51:00,28.7,28.2,30.37,NNE,12,0.0,0.0,98,0.00,,OVC055,0.00,VWS V14.01,2013-11-11 12:51:00,
2013-11-11 07:56:00,28.8,28.3,30.37,NNE,12,0.0,0.0,98,0.00,,OVC055,0.00,VWS V14.01,2013-11-11 12:56:00,
2013-11-11 08:00:00,28.9,28.4,30.37,NNE,12,0.0,0.0,98,0.00,,OVC055,0.00,VWS V14.01,2013-11-11 13:00:00,
2013-11-11 08:01:00,29.0,28.5,30.38,NNE,12,0.0,0.0,98,0.00,,OVC055,0.00,VWS V14.01,2013-11-11 13:01:00,
2013-11-11 08:06:00,29.3,28.8,30.37,NNE,12,0.0,0.0,98,0.00,,OVC055,0.00,VWS V14.01,2013-11-11 13:06:00,
2013-11-11 08:11:00,29.6,29.1,30.37,NNE,12,0.0,0.0,98,0.00,,OVC055,0.00,VWS V14.01,2013-11-11 13:11:00,
2013-11-11 08:16:00,29.7,29.2,30.38,NNE,12,0.0,0.0,98,0.00,,OVC055,0.00,VWS V14.01,2013-11-11 13:16:00,
2013-11-11 08:20:00,29.8,29.3,30.38,NNE,12,0.0,0.0,98,0.00,,OVC055,0.00,VWS V14.01,2013-11-11 13:20:00,
2013-11-11 08:25:00,30.0,29.5,30.38,NNE,12,0.0,0.0,98,0.00,,OVC055,0.00,VWS V14.01,2013-11-11 13:25:00,
2013-11-11 08:30:00,30.1,29.6,30.38,NNE,12,0.0,0.0,98,0.00,,OVC055,0.00,VWS V14.01,2013-11-11 13:30:00,
2013-11-11 08:35:00,30.4,29.9,30.39,NNE,12,0.0,0.0,98,0.00,,OVC055,0.00,VWS V14.01,2013-11-11 13:35:00,
2013-11-11 08:40:00,30.7,30.2,30.39,NNE,12,0.0,1.0,98,0.00,,OVC055,0.00,VWS V14.01,2013-11-11 13:40:00,
2013-11-11 08:45:00,31.2,30.7,30.39,NNE,12,0.0,1.0,98,0.00,,OVC055,0.00,VWS V14.01,2013-11-11 13:45:00,
2013-11-11 08:50:00,31.7,31.2,30.39,NNE,12,0.0,1.0,98,0.00,,OVC055,0.00,VWS V14.01,2013-11-11 13:50:00,
2013-11-11 08:55:00,32.0,31.5,30.39,NNE,12,0.0,1.0,98,0.00,,OVC055,0.00,VWS V14.01,2013-11-11 13:55:00,
2013-11-11 09:00:00,32.4,31.9,30.39,NNE,12,0.0,0.0,98,0.00,,OVC055,0.00,VWS V14.01,2013-11-11 14:00:00,
2013-11-11 09:05:00,32.8,32.3,30.39,NNE,12,0.0,1.0,98,0.00,,OVC055,0.00,VWS V14.01,2013-11-11 14:05:00,
2013-11-11 09:10:00,33.3,32.8,30.39,NNE,12,0.0,1.0,98,0.00,,OVC055,0.00,VWS V14.01,2013-11-11 14:10:00,
2013-11-11 09:15:00,33.7,32.9,30.38,NNE,12,0.0,1.0,97,0.00,,OVC055,0.00,VWS V14.01,2013-11-11 14:15:00,
2013-11-11 09:20:00,34.2,33.4,30.39,NNE,12,0.0,1.0,97,0.00,,OVC055,0.00,VWS V14.01,2013-11-11 14:20:00,
2013-11-11 09:25:00,34.8,34.0,30.39,NNE,12,0.0,1.0,97,0.00,,OVC055,0.00,VWS V14.01,2013-11-11 14:25:00,
2013-11-11 09:30:00,35.6,34.3,30.38,NNE,12,1.0,1.0,95,0.00,,OVC055,0.00,VWS V14.01,2013-11-11 14:30:00,
2013-11-11 09:35:00,36.5,34.7,30.38,NNE,12,0.0,2.0,93,0.00,,OVC055,0.00,VWS V14.01,2013-11-11 14:35:00,
2013-11-11 09:40:00,37.1,34.7,30.38,NNE,12,0.0,2.0,91,0.00,,OVC055,0.00,VWS V14.01,2013-11-11 14:40:00,
2013-11-11 09:45:00,37.8,35.1,30.38,NNE,12,1.0,2.0,90,0.00,,OVC055,0.00,VWS V14.01,2013-11-11 14:45:00,
2013-11-11 09:50:00,38.7,35.7,30.38,NNE,12,2.0,2.0,89,0.00,,OVC055,0.00,VWS V14.01,2013-11-11 14:50:00,
2013-11-11 09:55:00,39.8,36.0,30.38,NNE,12,0.0,2.0,86,0.00,,OVC055,0.00,VWS V14.01,2013-11-11 14:55:00,
2013-11-11 10:00:00,41.0,35.6,30.38,NNE,12,0.0,1.0,81,0.00,,OVC055,0.00,VWS V14.01,2013-11-11 15:00:00,
2013-11-11 10:05:00,42.2,36.2,30.38,NNE,12,0.0,2.0,79,0.00,,OVC055,0.00,VWS V14.01,2013-11-11 15:05:00,
2013-11-11 10:10:00,43.3,35.9,30.38,NNE,12,0.0,2.0,75,0.00,,OVC055,0.00,VWS V14.01,2013-11-11 15:10:00,
2013-11-11 10:15:00,44.2,35.8,30.38,NE,49,0.0,3.0,72,0.00,,OVC055,0.00,VWS V14.01,2013-11-11 15:15:00,
2013-11-11 10:20:00,45.1,36.3,30.38,NE,49,0.0,3.0,71,0.00,,OVC055,0.00,VWS V14.01,2013-11-11 15:20:00,
2013-11-11 10:25:00,45.9,36.7,30.38,NE,49,0.0,3.0,70,0.00,,OVC055,0.00,VWS V14.01,2013-11-11 15:25:00,
2013-11-11 10:30:00,46.5,36.5,30.38,NE,50,1.0,2.0,68,0.00,,OVC055,0.00,VWS V14.01,2013-11-11 15:30:00,
2013-11-11 10:35:00,46.9,36.5,30.37,NE,50,1.0,2.0,67,0.00,,OVC055,0.00,VWS V14.01,2013-11-11 15:35:00,
2013-11-11 10:40:00,47.2,36.0,30.37,NE,50,2.0,2.0,65,0.00,,OVC055,0.00,VWS V14.01,2013-11-11 15:40:00,
2013-11-11 10:45:00,48.0,35.6,30.37,NNE,24,0.0,2.0,62,0.00,,OVC055,0.00,VWS V14.01,2013-11-11 15:45:00,
2013-11-11 10:50:00,48.8,36.0,30.37,NNE,24,0.0,2.0,61,0.00,,OVC055,0.00,VWS V14.01,2013-11-11 15:50:00,
2013-11-11 10:55:00,49.9,36.2,30.36,NNE,24,1.0,2.0,59,0.00,,OVC055,0.00,VWS V14.01,2013-11-11 15:55:00,
2013-11-11 11:00:00,50.7,36.5,30.36,NNE,24,1.0,2.0,58,0.00,,OVC055,0.00,VWS V14.01,2013-11-11 16:00:00,
2013-11-11 11:05:00,51.0,35.0,30.35,NNE,24,1.0,3.0,54,0.00,,OVC055,0.00,VWS V14.01,2013-11-11 16:05:00,
2013-11-11 11:10:00,51.2,35.1,30.35,NNE,24,1.0,3.0,54,0.00,,OVC055,0.00,VWS V14.01,2013-11-11 16:10:00,
2013-11-11 11:15:00,51.7,36.5,30.35,NNE,25,2.0,3.0,56,0.00,,OVC055,0.00,VWS V14.01,2013-11-11 16:15:00,
2013-11-11 11:20:00,52.1,36.0,30.35,NE,42,0.0,3.0,54,0.00,,OVC055,0.00,VWS V14.01,2013-11-11 16:20:00,
2013-11-11 11:25:00,52.8,37.1,30.35,NE,42,0.0,3.0,55,0.00,,OVC055,0.00,VWS V14.01,2013-11-11 16:25:00,
2013-11-11 11:30:00,53.6,35.4,30.34,NE,42,1.0,2.0,50,0.00,,OVC055,0.00,VWS V14.01,2013-11-11 16:30:00,
2013-11-11 11:35:00,53.9,35.7,30.34,NE,42,0.0,2.0,50,0.00,,OVC055,0.00,VWS V14.01,2013-11-11 16:35:00,
2013-11-11 11:40:00,54.3,35.6,30.33,NE,42,0.0,3.0,49,0.00,,OVC055,0.00,VWS V14.01,2013-11-11 16:40:00,
2013-11-11 11:45:00,54.9,35.6,30.33,NE,42,0.0,3.0,48,0.00,,OVC055,0.00,VWS V14.01,2013-11-11 16:45:00,
2013-11-11 11:50:00,55.5,35.6,30.33,NE,42,2.0,3.0,47,0.00,,OVC055,0.00,VWS V14.01,2013-11-11 16:50:00,
2013-11-11 11:55:00,55.7,35.8,30.32,NNE,28,1.0,3.0,47,0.00,,OVC055,0.00,VWS V14.01,2013-11-11 16:55:00,
2013-11-11 12:00:00,55.6,35.2,30.32,NNE,28,2.0,3.0,46,0.00,,OVC055,0.00,VWS V14.01,2013-11-11 17:00:00,
2013-11-11 12:05:00,55.4,35.5,30.32,NNE,28,2.0,4.0,47,0.00,,OVC055,0.00,VWS V14.01,2013-11-11 17:05:00,
2013-11-11 12:10:00,55.6,34.6,30.31,North,355,0.0,4.0,45,0.00,,OVC055,0.00,VWS V14.01,2013-11-11 17:10:00,
2013-11-11 12:15:00,56.2,35.2,30.31,North,355,1.0,4.0,45,0.00,,OVC055,0.00,VWS V14.01,2013-11-11 17:15:00,
2013-11-11 12:20:00,56.9,36.9,30.30,North,360,0.0,4.0,47,0.00,,OVC055,0.00,VWS V14.01,2013-11-11 17:20:00,
2013-11-11 12:25:00,57.6,35.9,30.30,SSE,147,1.0,4.0,44,0.00,,OVC055,0.00,VWS V14.01,2013-11-11 17:25:00,
2013-11-11 12:30:00,58.4,36.6,30.30,NE,49,3.0,3.0,44,0.00,,OVC055,0.00,VWS V14.01,2013-11-11 17:30:00,
2013-11-11 12:35:00,58.7,35.7,30.30,ESE,110,0.0,4.0,42,0.00,,OVC055,0.00,VWS V14.01,2013-11-11 17:35:00,
2013-11-11 12:40:00,58.9,35.3,30.29,NE,39,1.0,4.0,41,0.00,,OVC055,0.00,VWS V14.01,2013-11-11 17:40:00,
2013-11-11 12:45:00,58.9,36.5,30.29,NE,44,1.0,4.0,43,0.00,,OVC055,0.00,VWS V14.01,2013-11-11 17:45:00,
2013-11-11 12:50:00,59.3,35.6,30.29,West,271,0.0,4.0,41,0.00,,OVC055,0.00,VWS V14.01,2013-11-11 17:50:00,
2013-11-11 12:55:00,59.9,35.5,30.28,ENE,59,1.0,4.0,40,0.00,,OVC055,0.00,VWS V14.01,2013-11-11 17:55:00,
2013-11-11 13:00:00,60.2,35.2,30.28,SSW,204,0.0,5.0,39,0.00,,OVC055,0.00,VWS V14.01,2013-11-11 18:00:00,
2013-11-11 13:05:00,60.2,33.8,30.28,West,263,2.0,5.0,37,0.00,,OVC055,0.00,VWS V14.01,2013-11-11 18:05:00,
2013-11-11 13:10:00,59.8,32.8,30.27,SW,224,0.0,6.0,36,0.00,,OVC055,0.00,VWS V14.01,2013-11-11 18:10:00,
2013-11-11 13:15:00,59.3,35.0,30.27,WNW,284,0.0,7.0,40,0.00,,OVC055,0.00,VWS V14.01,2013-11-11 18:15:00,
2013-11-11 13:20:00,59.2,34.3,30.27,SW,215,3.0,7.0,39,0.00,,OVC055,0.00,VWS V14.01,2013-11-11 18:20:00,
2013-11-11 13:25:00,59.1,34.8,30.27,WSW,248,0.0,7.0,40,0.00,,OVC055,0.00,VWS V14.01,2013-11-11 18:25:00,
2013-11-11 13:30:00,59.2,33.0,30.26,NW,304,1.0,6.0,37,0.00,,OVC055,0.00,VWS V14.01,2013-11-11 18:30:00,
2013-11-11 13:35:00,59.3,33.7,30.26,SE,140,2.0,6.0,38,0.00,,OVC055,0.00,VWS V14.01,2013-11-11 18:35:00,
2013-11-11 13:40:00,59.2,33.6,30.26,West,281,4.0,6.0,38,0.00,,OVC055,0.00,VWS V14.01,2013-11-11 18:40:00,
2013-11-11 13:45:00,59.1,33.5,30.26,NW,315,0.0,6.0,38,0.00,,OVC055,0.00,VWS V14.01,2013-11-11 18:45:00,
2013-11-11 13:50:00,59.3,33.0,30.26,West,267,2.0,6.0,37,0.00,,OVC055,0.00,VWS V14.01,2013-11-11 18:50:00,
2013-11-11 13:55:00,59.3,33.7,30.26,South,175,1.0,6.0,38,0.00,,OVC055,0.00,VWS V14.01,2013-11-11 18:55:00,
2013-11-11 14:00:00,59.2,33.6,30.25,West,272,0.0,4.0,38,0.00,,OVC055,0.00,VWS V14.01,2013-11-11 19:00:00,
2013-11-11 14:05:00,59.3,33.7,30.25,NNW,340,1.0,4.0,38,0.00,,OVC055,0.00,VWS V14.01,2013-11-11 19:05:00,
2013-11-11 14:10:00,59.2,32.3,30.25,East,80,1.0,4.0,36,0.00,,OVC055,0.00,VWS V14.01,2013-11-11 19:10:00,
2013-11-11 14:15:00,59.2,33.6,30.25,SSE,162,0.0,4.0,38,0.00,,OVC055,0.00,VWS V14.01,2013-11-11 19:15:00,
2013-11-11 14:20:00,59.3,33.0,30.25,West,269,1.0,4.0,37,0.00,,OVC055,0.00,VWS V14.01,2013-11-11 19:20:00,
2013-11-11 14:25:00,59.4,33.1,30.25,West,261,0.0,4.0,37,0.00,,OVC055,0.00,VWS V14.01,2013-11-11 19:25:00,
2013-11-11 14:30:00,59.6,33.3,30.25,NW,308,0.0,1.0,37,0.00,,OVC055,0.00,VWS V14.01,2013-11-11 19:30:00,
2013-11-11 14:35:00,59.7,34.1,30.25,SSW,212,1.0,4.0,38,0.00,,OVC055,0.00,VWS V14.01,2013-11-11 19:35:00,
2013-11-11 14:40:00,59.8,33.5,30.25,SSW,211,0.0,5.0,37,0.00,,OVC055,0.00,VWS V14.01,2013-11-11 19:40:00,
2013-11-11 14:45:00,59.7,33.4,30.25,West,269,2.0,5.0,37,0.00,,OVC055,0.00,VWS V14.01,2013-11-11 19:45:00,
2013-11-11 14:50:00,60.0,33.7,30.25,SW,231,3.0,5.0,37,0.00,,OVC055,0.00,VWS V14.01,2013-11-11 19:50:00,
2013-11-11 14:55:00,59.9,34.2,30.24,WNW,302,1.0,5.0,38,0.00,,OVC055,0.00,VWS V14.01,2013-11-11 19:55:00,
2013-11-11 15:00:00,59.5,33.2,30.24,SE,135,0.0,3.0,37,0.00,,OVC055,0.00,VWS V14.01,2013-11-11 20:00:00,
2013-11-11 15:05:00,59.1,33.5,30.24,NE,53,1.0,3.0,38,0.00,,OVC055,0.00,VWS V14.01,2013-11-11 20:05:00,
2013-11-11 15:10:00,58.8,34.5,30.24,WSW,250,0.0,3.0,40,0.00,,OVC055,0.00,VWS V14.01,2013-11-11 20:10:00,
2013-11-11 15:15:00,58.5,33.7,30.24,East,84,1.0,3.0,39,0.00,,OVC055,0.00,VWS V14.01,2013-11-11 20:15:00,
2013-11-11 15:20:00,58.2,33.4,30.24,NW,313,1.0,5.0,39,0.00,,OVC055,0.00,VWS V14.01,2013-11-11 20:20:00,
2013-11-11 15:25:00,58.1,33.3,30.24,North,360,2.0,5.0,39,0.00,,OVC055,0.00,VWS V14.01,2013-11-11 20:25:00,
2013-11-11 15:30:00,58.0,33.2,30.24,NNE,12,0.0,2.0,39,0.00,,OVC055,0.00,VWS V14.01,2013-11-11 20:30:00,
2013-11-11 15:35:00,57.8,33.0,30.24,ESE,105,0.0,2.0,39,0.00,,OVC055,0.00,VWS V14.01,2013-11-11 20:35:00,
2013-11-11 15:40:00,57.5,33.4,30.24,West,268,0.0,5.0,40,0.00,,OVC055,0.00,VWS V14.01,2013-11-11 20:40:00,
2013-11-11 15:45:00,57.2,33.7,30.24,West,261,0.0,5.0,41,0.00,,OVC055,0.00,VWS V14.01,2013-11-11 20:45:00,
2013-11-11 15:50:00,57.0,33.5,30.24,WSW,256,0.0,5.0,41,0.00,,OVC055,0.00,VWS V14.01,2013-11-11 20:50:00,
2013-11-11 15:55:00,56.9,33.5,30.24,West,273,0.0,5.0,41,0.00,,OVC055,0.00,VWS V14.01,2013-11-11 20:55:00,
2013-11-11 16:00:00,56.6,33.8,30.25,WSW,242,1.0,4.0,42,0.00,,OVC055,0.00,VWS V14.01,2013-11-11 21:00:00,
2013-11-11 16:05:00,56.4,34.2,30.25,WSW,249,0.0,4.0,43,0.00,,OVC055,0.00,VWS V14.01,2013-11-11 21:05:00,
2013-11-11 16:10:00,56.2,34.0,30.25,WNW,284,0.0,4.0,43,0.00,,OVC055,0.00,VWS V14.01,2013-11-11 21:10:00,
2013-11-11 16:15:00,56.0,33.2,30.25,South,174,0.0,4.0,42,0.00,,OVC055,0.00,VWS V14.01,2013-11-11 21:15:00,
2013-11-11 16:20:00,55.9,33.8,30.25,South,188,0.0,4.0,43,0.00,,OVC055,0.00,VWS V14.01,2013-11-11 21:20:00,
2013-11-11 16:25:00,55.7,34.1,30.25,West,267,0.0,5.0,44,0.00,,OVC055,0.00,VWS V14.01,2013-11-11 21:25:00,
2013-11-11 16:30:00,55.4,33.9,30.25,SSW,199,0.0,1.0,44,0.00,,OVC055,0.00,VWS V14.01,2013-11-11 21:30:00,
2013-11-11 16:35:00,55.2,34.2,30.25,SSW,200,0.0,2.0,45,0.00,,OVC055,0.00,VWS V14.01,2013-11-11 21:35:00,
2013-11-11 16:40:00,54.9,34.0,30.25,SSW,200,0.0,2.0,45,0.00,,OVC055,0.00,VWS V14.01,2013-11-11 21:40:00,
2013-11-11 16:45:00,54.7,33.8,30.25,WSW,254,0.0,3.0,45,0.00,,OVC055,0.00,VWS V14.01,2013-11-11 21:45:00,
2013-11-11 16:50:00,54.4,34.1,30.25,SW,221,0.0,3.0,46,0.00,,OVC055,0.00,VWS V14.01,2013-11-11 21:50:00,
2013-11-11 16:55:00,54.2,33.9,30.25,SW,222,0.0,3.0,46,0.00,,OVC055,0.00,VWS V14.01,2013-11-11 21:55:00,
2013-11-11 17:00:00,53.9,34.2,30.25,South,189,0.0,0.0,47,0.00,,OVC055,0.00,VWS V14.01,2013-11-11 22:00:00,
2013-11-11 17:05:00,53.7,34.0,30.25,SSW,200,0.0,4.0,47,0.00,,OVC055,0.00,VWS V14.01,2013-11-11 22:05:00,
2013-11-11 17:10:00,53.4,34.2,30.24,West,267,0.0,4.0,48,0.00,,OVC055,0.00,VWS V14.01,2013-11-11 22:10:00,
2013-11-11 17:15:00,53.1,34.5,30.24,SSW,213,0.0,4.0,49,0.00,,OVC055,0.00,VWS V14.01,2013-11-11 22:15:00,
2013-11-11 17:20:00,52.8,33.7,30.24,South,188,0.0,4.0,48,0.00,,OVC055,0.00,VWS V14.01,2013-11-11 22:20:00,
2013-11-11 17:25:00,52.6,34.0,30.24,South,188,0.0,4.0,49,0.00,,OVC055,0.00,VWS V14.01,2013-11-11 22:25:00,
2013-11-11 17:30:00,52.3,33.7,30.24,South,188,0.0,0.0,49,0.00,,OVC055,0.00,VWS V14.01,2013-11-11 22:30:00,
2013-11-11 17:35:00,52.0,33.5,30.24,West,280,1.0,2.0,49,0.00,,OVC055,0.00,VWS V14.01,2013-11-11 22:35:00,
2013-11-11 17:40:00,51.7,33.7,30.25,West,280,0.0,2.0,50,0.00,,OVC055,0.00,VWS V14.01,2013-11-11 22:40:00,
2013-11-11 17:45:00,51.5,33.5,30.25,West,280,0.0,2.0,50,0.00,,OVC055,0.00,VWS V14.01,2013-11-11 22:45:00,
2013-11-11 17:50:00,51.2,33.7,30.25,WSW,248,1.0,3.0,51,0.00,,OVC055,0.00,VWS V14.01,2013-11-11 22:50:00,
2013-11-11 17:55:00,51.0,33.5,30.25,WSW,248,0.0,3.0,51,0.00,,OVC055,0.00,VWS V14.01,2013-11-11 22:55:00,
2013-11-11 18:00:00,50.8,33.3,30.25,WSW,248,0.0,0.0,51,0.00,,OVC055,0.00,VWS V14.01,2013-11-11 23:00:00,
2013-11-11 18:04:00,50.6,33.2,30.25,WSW,248,0.0,1.0,51,0.00,,OVC055,0.00,VWS V14.01,2013-11-11 23:04:00,
2013-11-11 18:09:00,50.3,33.4,30.25,WSW,248,0.0,1.0,52,0.00,,OVC055,0.00,VWS V14.01,2013-11-11 23:09:00,
2013-11-11 18:14:00,50.0,33.6,30.25,WSW,248,0.0,1.0,53,0.00,,OVC055,0.00,VWS V14.01,2013-11-11 23:14:00,
2013-11-11 18:19:00,49.6,33.7,30.25,WSW,248,0.0,1.0,54,0.00,,OVC055,0.00,VWS V14.01,2013-11-11 23:19:00,
2013-11-11 18:24:00,49.2,33.7,30.25,WSW,248,0.0,1.0,55,0.00,,OVC055,0.00,VWS V14.01,2013-11-11 23:24:00,
2013-11-11 18:29:00,48.8,34.3,30.26,WSW,248,0.0,0.0,57,0.00,,OVC055,0.00,VWS V14.01,2013-11-11 23:29:00,
2013-11-11 18:30:00,49.0,34.0,30.26,WSW,248,0.0,1.0,56,0.00,,OVC055,0.00,VWS V14.01,2013-11-11 23:30:00,
2013-11-11 18:34:00,48.3,34.2,30.26,WSW,248,0.0,0.0,58,0.00,,OVC055,0.00,VWS V14.01,2013-11-11 23:34:00,
2013-11-11 18:39:00,47.7,34.5,30.26,WSW,248,0.0,0.0,60,0.00,,OVC055,0.00,VWS V14.01,2013-11-11 23:39:00,
2013-11-11 18:44:00,47.0,33.8,30.26,WSW,248,0.0,0.0,60,0.00,,OVC055,0.00,VWS V14.01,2013-11-11 23:44:00,
2013-11-11 18:49:00,46.6,34.3,30.26,WSW,248,0.0,0.0,62,0.00,,OVC055,0.00,VWS V14.01,2013-11-11 23:49:00,
2013-11-11 18:54:00,46.0,34.1,30.26,WSW,248,0.0,0.0,63,0.00,,OVC055,0.00,VWS V14.01,2013-11-11 23:54:00,
2013-11-11 18:59:00,45.5,34.0,30.26,WSW,248,0.0,0.0,64,0.00,,OVC055,0.00,VWS V14.01,2013-11-11 23:59:00,
2013-11-11 19:00:00,45.6,34.1,30.26,WSW,248,0.0,0.0,64,0.00,,OVC055,0.00,VWS V14.01,2013-11-12 00:00:00,
2013-11-11 19:04:00,45.0,34.0,30.26,WSW,248,0.0,0.0,65,0.00,,OVC055,0.00,VWS V14.01,2013-11-12 00:04:00,
2013-11-11 19:09:00,44.5,33.9,30.26,WSW,248,0.0,0.0,66,0.00,,OVC055,0.00,VWS V14.01,2013-11-12 00:09:00,
2013-11-11 19:14:00,44.0,33.4,30.26,WSW,248,0.0,0.0,66,0.00,,OVC055,0.00,VWS V14.01,2013-11-12 00:14:00,
2013-11-11 19:19:00,43.6,33.8,30.26,WSW,248,0.0,0.0,68,0.00,,OVC055,0.00,VWS V14.01,2013-11-12 00:19:00,
2013-11-11 19:24:00,43.3,33.8,30.26,WSW,248,0.0,1.0,69,0.00,,OVC055,0.00,VWS V14.01,2013-11-12 00:24:00,
2013-11-11 19:29:00,43.1,33.6,30.26,WSW,248,0.0,0.0,69,0.00,,OVC055,0.00,VWS V14.01,2013-11-12 00:29:00,
2013-11-11 19:30:00,43.2,33.7,30.26,WSW,248,0.0,1.0,69,0.00,,OVC055,0.00,VWS V14.01,2013-11-12 00:30:00,
2013-11-11 19:34:00,42.9,33.4,30.26,WSW,248,0.0,0.0,69,0.00,,OVC055,0.00,VWS V14.01,2013-11-12 00:34:00,
2013-11-11 19:39:00,42.7,34.0,30.26,WSW,248,0.0,0.0,71,0.00,,OVC055,0.00,VWS V14.01,2013-11-12 00:39:00,
2013-11-11 19:44:00,42.6,33.5,30.25,WSW,248,0.0,0.0,70,0.00,,OVC055,0.00,VWS V14.01,2013-11-12 00:44:00,
2013-11-11 19:49:00,42.4,33.7,30.26,WSW,248,0.0,0.0,71,0.00,,OVC055,0.00,VWS V14.01,2013-11-12 00:49:00,
2013-11-11 19:54:00,42.1,33.7,30.25,WSW,248,0.0,0.0,72,0.00,,OVC055,0.00,VWS V14.01,2013-11-12 00:54:00,
2013-11-11 19:59:00,41.8,33.8,30.26,WSW,248,0.0,0.0,73,0.00,,OVC055,0.00,VWS V14.01,2013-11-12 00:59:00,
2013-11-11 20:00:00,41.9,33.9,30.26,WSW,248,0.0,0.0,73,0.00,,OVC055,0.00,VWS V14.01,2013-11-12 01:00:00,
2013-11-11 20:04:00,41.5,33.5,30.26,WSW,248,0.0,0.0,73,0.00,,OVC055,0.00,VWS V14.01,2013-11-12 01:04:00,
2013-11-11 20:09:00,41.2,33.2,30.26,WSW,248,0.0,1.0,73,0.00,,OVC055,0.00,VWS V14.01,2013-11-12 01:09:00,
2013-11-11 20:14:00,41.0,33.4,30.26,WSW,248,0.0,1.0,74,0.00,,OVC055,0.00,VWS V14.01,2013-11-12 01:14:00,
2013-11-11 20:19:00,40.9,34.3,30.26,WSW,248,0.0,1.0,77,0.00,,OVC055,0.00,VWS V14.01,2013-11-12 01:19:00,
2013-11-11 20:24:00,40.7,33.7,30.26,WSW,248,0.0,1.0,76,0.00,,OVC055,0.00,VWS V14.01,2013-11-12 01:24:00,
2013-11-11 20:29:00,40.6,34.0,30.26,WSW,248,0.0,0.0,77,0.00,,OVC055,0.00,VWS V14.01,2013-11-12 01:29:00,
2013-11-11 20:30:00,40.6,34.0,30.26,WSW,248,0.0,1.0,77,0.00,,OVC055,0.00,VWS V14.01,2013-11-12 01:30:00,
2013-11-11 20:34:00,40.2,33.6,30.26,WSW,248,0.0,0.0,77,0.00,,OVC055,0.00,VWS V14.01,2013-11-12 01:34:00,
2013-11-11 20:39:00,40.0,33.4,30.25,WSW,248,0.0,0.0,77,0.00,,OVC055,0.00,VWS V14.01,2013-11-12 01:39:00,
2013-11-11 20:44:00,39.8,33.2,30.26,WSW,248,0.0,0.0,77,0.00,,OVC055,0.00,VWS V14.01,2013-11-12 01:44:00,
2013-11-11 20:49:00,39.7,33.4,30.26,WSW,248,0.0,0.0,78,0.00,,OVC055,0.00,VWS V14.01,2013-11-12 01:49:00,
2013-11-11 20:54:00,39.4,33.4,30.26,WSW,248,0.0,0.0,79,0.00,,OVC055,0.00,VWS V14.01,2013-11-12 01:54:00,
2013-11-11 20:59:00,39.2,33.6,30.26,WSW,248,0.0,0.0,80,0.00,,OVC055,0.00,VWS V14.01,2013-11-12 01:59:00,
2013-11-11 21:00:00,39.3,33.3,30.26,WSW,248,0.0,0.0,79,0.00,,OVC055,0.00,VWS V14.01,2013-11-12 02:00:00,
2013-11-11 21:04:00,38.9,33.3,30.26,WSW,248,0.0,0.0,80,0.00,,OVC055,0.00,VWS V14.01,2013-11-12 02:04:00,
2013-11-11 21:09:00,38.7,33.4,30.26,WSW,248,0.0,0.0,81,0.00,,OVC055,0.00,VWS V14.01,2013-11-12 02:09:00,
2013-11-11 21:14:00,38.4,33.4,30.26,WSW,248,0.0,0.0,82,0.00,,OVC055,0.00,VWS V14.01,2013-11-12 02:14:00,
2013-11-11 21:19:00,38.2,33.5,30.26,WSW,248,0.0,0.0,83,0.00,,OVC055,0.00,VWS V14.01,2013-11-12 02:19:00,
2013-11-11 21:24:00,37.9,32.9,30.26,WSW,248,0.0,0.0,82,0.00,,OVC055,0.00,VWS V14.01,2013-11-12 02:24:00,
2013-11-11 21:29:00,37.8,32.8,30.26,WSW,248,0.0,0.0,82,0.00,,OVC055,0.00,VWS V14.01,2013-11-12 02:29:00,
2013-11-11 21:30:00,37.8,32.8,30.26,WSW,248,0.0,0.0,82,0.00,,OVC055,0.00,VWS V14.01,2013-11-12 02:30:00,
2013-11-11 21:34:00,37.7,32.7,30.26,WSW,248,0.0,0.0,82,0.00,,OVC055,0.00,VWS V14.01,2013-11-12 02:34:00,
2013-11-11 21:39:00,37.5,32.5,30.26,WSW,248,0.0,0.0,82,0.00,,OVC055,0.00,VWS V14.01,2013-11-12 02:39:00,
2013-11-11 21:44:00,37.4,33.0,30.26,WSW,248,0.0,0.0,84,0.00,,OVC055,0.00,VWS V14.01,2013-11-12 02:44:00,
2013-11-11 21:49:00,37.4,33.0,30.26,WSW,248,0.0,0.0,84,0.00,,OVC055,0.00,VWS V14.01,2013-11-12 02:49:00,
2013-11-11 21:54:00,37.3,33.2,30.26,WSW,248,0.0,0.0,85,0.00,,OVC055,0.00,VWS V14.01,2013-11-12 02:54:00,
2013-11-11 21:59:00,37.1,33.0,30.26,WSW,248,0.0,0.0,85,0.00,,OVC055,0.00,VWS V14.01,2013-11-12 02:59:00,
2013-11-11 22:00:00,37.2,33.1,30.26,WSW,248,0.0,0.0,85,0.00,,OVC055,0.00,VWS V14.01,2013-11-12 03:00:00,
2013-11-11 22:04:00,36.8,32.7,30.26,WSW,248,0.0,0.0,85,0.00,,OVC055,0.00,VWS V14.01,2013-11-12 03:04:00,
2013-11-11 22:09:00,36.5,32.4,30.26,WSW,248,0.0,0.0,85,0.00,,OVC055,0.00,VWS V14.01,2013-11-12 03:09:00,
2013-11-11 22:14:00,36.3,32.2,30.26,WSW,248,0.0,0.0,85,0.00,,OVC055,0.00,VWS V14.01,2013-11-12 03:14:00,
2013-11-11 22:19:00,36.2,32.4,30.26,WSW,248,0.0,0.0,86,0.00,,OVC055,0.00,VWS V14.01,2013-11-12 03:19:00,
2013-11-11 22:24:00,36.0,32.5,30.26,WSW,248,0.0,0.0,87,0.00,,OVC055,0.00,VWS V14.01,2013-11-12 03:24:00,
2013-11-11 22:29:00,35.8,32.3,30.26,WSW,248,0.0,0.0,87,0.00,,OVC055,0.00,VWS V14.01,2013-11-12 03:29:00,
2013-11-11 22:30:00,35.8,32.3,30.26,WSW,248,0.0,0.0,87,0.00,,OVC055,0.00,VWS V14.01,2013-11-12 03:30:00,
2013-11-11 22:34:00,35.6,32.1,30.26,WSW,248,0.0,0.0,87,0.00,,OVC055,0.00,VWS V14.01,2013-11-12 03:34:00,
2013-11-11 22:39:00,35.5,32.3,30.26,WSW,248,0.0,0.0,88,0.00,,OVC055,0.00,VWS V14.01,2013-11-12 03:39:00,
2013-11-11 22:44:00,35.5,32.3,30.26,WSW,248,0.0,0.0,88,0.00,,OVC055,0.00,VWS V14.01,2013-11-12 03:44:00,
2013-11-11 22:49:00,35.4,32.5,30.26,WSW,248,0.0,0.0,89,0.00,,OVC055,0.00,VWS V14.01,2013-11-12 03:49:00,
2013-11-11 22:54:00,35.3,32.4,30.26,WSW,248,0.0,0.0,89,0.00,,OVC055,0.00,VWS V14.01,2013-11-12 03:54:00,
2013-11-11 22:59:00,35.2,32.3,30.26,WSW,248,0.0,0.0,89,0.00,,OVC055,0.00,VWS V14.01,2013-11-12 03:59:00,
2013-11-11 23:00:00,35.2,32.3,30.26,WSW,248,0.0,0.0,89,0.00,,OVC055,0.00,VWS V14.01,2013-11-12 04:00:00,
2013-11-11 23:04:00,35.2,32.3,30.25,WSW,248,0.0,0.0,89,0.00,,OVC055,0.00,VWS V14.01,2013-11-12 04:04:00,
2013-11-11 23:09:00,35.1,32.5,30.25,WSW,248,0.0,0.0,90,0.00,,OVC055,0.00,VWS V14.01,2013-11-12 04:09:00,
2013-11-11 23:14:00,35.0,32.4,30.25,WSW,248,0.0,0.0,90,0.00,,OVC055,0.00,VWS V14.01,2013-11-12 04:14:00,
2013-11-11 23:19:00,34.8,32.2,30.24,WSW,248,0.0,0.0,90,0.00,,OVC055,0.00,VWS V14.01,2013-11-12 04:19:00,
2013-11-11 23:24:00,34.7,32.1,30.24,WSW,248,0.0,0.0,90,0.00,,OVC055,0.00,VWS V14.01,2013-11-12 04:24:00,
2013-11-11 23:29:00,34.6,32.0,30.23,WSW,248,0.0,0.0,90,0.00,,OVC055,0.00,VWS V14.01,2013-11-12 04:29:00,
2013-11-11 23:30:00,34.6,32.0,30.24,WSW,248,0.0,0.0,90,0.00,,OVC055,0.00,VWS V14.01,2013-11-12 04:30:00,
2013-11-11 23:34:00,34.3,32.0,30.23,WSW,248,0.0,0.0,91,0.00,,OVC055,0.00,VWS V14.01,2013-11-12 04:34:00,
2013-11-11 23:39:00,33.9,31.6,30.23,WSW,248,0.0,0.0,91,0.00,,OVC055,0.00,VWS V14.01,2013-11-12 04:39:00,
2013-11-11 23:44:00,33.7,31.6,30.23,WSW,248,0.0,0.0,92,0.00,,OVC055,0.00,VWS V14.01,2013-11-12 04:44:00,
2013-11-11 23:49:00,33.8,31.7,30.23,WSW,248,0.0,0.0,92,0.00,,OVC055,0.00,VWS V14.01,2013-11-12 04:49:00,
2013-11-11 23:54:00,34.1,32.3,30.23,WSW,248,0.0,1.0,93,0.00,,OVC055,0.00,VWS V14.01,2013-11-12 04:54:00,
2013-11-11 23:59:00,34.2,32.1,30.23,WSW,248,0.0,0.0,92,0.00,,OVC055,0.00,VWS V14.01,2013-11-12 04:59:00,